sensor_id;sensor_type;location;lat;lon;timestamp;P1;durP1;ratioP1;P2;durP2;ratioP2
11048;SDS011;5577;42.706;23.160;2023-06-04T00:00:42;21.53;;;16.83;;
11048;SDS011;5577;42.706;23.160;2023-06-04T00:03:26;29.77;;;22.37;;
11048;SDS011;5577;42.706;23.160;2023-06-04T00:06:10;30.87;;;23.40;;
11048;SDS011;5577;42.706;23.160;2023-06-04T00:08:55;32.93;;;23.83;;
11048;SDS011;5577;42.706;23.160;2023-06-04T00:11:38;31.50;;;23.43;;
11048;SDS011;5577;42.706;23.160;2023-06-04T00:14:22;29.87;;;21.33;;
11048;SDS011;5577;42.706;23.160;2023-06-04T00:17:08;26.77;;;20.37;;
11048;SDS011;5577;42.706;23.160;2023-06-04T00:19:53;28.77;;;19.83;;
11048;SDS011;5577;42.706;23.160;2023-06-04T00:22:37;28.07;;;19.37;;
11048;SDS011;5577;42.706;23.160;2023-06-04T00:25:21;26.13;;;19.17;;
11048;SDS011;5577;42.706;23.160;2023-06-04T00:28:05;23.43;;;18.10;;
11048;SDS011;5577;42.706;23.160;2023-06-04T00:30:49;25.67;;;18.57;;
11048;SDS011;5577;42.706;23.160;2023-06-04T00:33:34;23.30;;;17.37;;
11048;SDS011;5577;42.706;23.160;2023-06-04T00:36:19;22.73;;;17.03;;
11048;SDS011;5577;42.706;23.160;2023-06-04T00:39:02;21.63;;;17.00;;
11048;SDS011;5577;42.706;23.160;2023-06-04T00:41:46;20.10;;;16.70;;
11048;SDS011;5577;42.706;23.160;2023-06-04T00:44:30;22.30;;;17.23;;
11048;SDS011;5577;42.706;23.160;2023-06-04T00:47:16;25.53;;;16.90;;
11048;SDS011;5577;42.706;23.160;2023-06-04T00:50:03;21.13;;;16.33;;
11048;SDS011;5577;42.706;23.160;2023-06-04T00:52:49;22.33;;;16.57;;
11048;SDS011;5577;42.706;23.160;2023-06-04T00:55:33;28.13;;;17.60;;
11048;SDS011;5577;42.706;23.160;2023-06-04T00:58:18;19.47;;;15.97;;
11048;SDS011;5577;42.706;23.160;2023-06-04T01:01:02;21.43;;;16.83;;
11048;SDS011;5577;42.706;23.160;2023-06-04T01:03:51;21.90;;;15.83;;
11048;SDS011;5577;42.706;23.160;2023-06-04T01:06:39;17.40;;;14.50;;
11048;SDS011;5577;42.706;23.160;2023-06-04T01:09:28;19.33;;;14.40;;
11048;SDS011;5577;42.706;23.160;2023-06-04T01:12:12;17.60;;;14.57;;
11048;SDS011;5577;42.706;23.160;2023-06-04T01:14:56;20.33;;;14.90;;
11048;SDS011;5577;42.706;23.160;2023-06-04T01:17:41;17.23;;;13.87;;
11048;SDS011;5577;42.706;23.160;2023-06-04T01:23:32;18.20;;;15.03;;
11048;SDS011;5577;42.706;23.160;2023-06-04T01:26:26;20.60;;;15.17;;
11048;SDS011;5577;42.706;23.160;2023-06-04T01:29:12;19.87;;;15.40;;
11048;SDS011;5577;42.706;23.160;2023-06-04T01:31:56;19.63;;;15.07;;
11048;SDS011;5577;42.706;23.160;2023-06-04T01:34:45;24.90;;;14.93;;
11048;SDS011;5577;42.706;23.160;2023-06-04T01:37:30;20.93;;;15.30;;
11048;SDS011;5577;42.706;23.160;2023-06-04T01:40:14;18.70;;;14.50;;
11048;SDS011;5577;42.706;23.160;2023-06-04T01:42:59;17.30;;;14.13;;
11048;SDS011;5577;42.706;23.160;2023-06-04T01:45:43;18.07;;;13.97;;
11048;SDS011;5577;42.706;23.160;2023-06-04T01:48:27;19.27;;;14.83;;
11048;SDS011;5577;42.706;23.160;2023-06-04T01:51:11;17.17;;;14.27;;
11048;SDS011;5577;42.706;23.160;2023-06-04T01:53:55;16.47;;;13.97;;
11048;SDS011;5577;42.706;23.160;2023-06-04T01:56:39;19.10;;;13.80;;
11048;SDS011;5577;42.706;23.160;2023-06-04T01:59:24;16.97;;;13.47;;
11048;SDS011;5577;42.706;23.160;2023-06-04T02:02:07;19.90;;;14.47;;
11048;SDS011;5577;42.706;23.160;2023-06-04T02:04:52;18.73;;;14.50;;
11048;SDS011;5577;42.706;23.160;2023-06-04T02:07:36;20.73;;;14.67;;
11048;SDS011;5577;42.706;23.160;2023-06-04T02:10:25;18.27;;;13.77;;
11048;SDS011;5577;42.706;23.160;2023-06-04T02:13:09;17.67;;;14.20;;
11048;SDS011;5577;42.706;23.160;2023-06-04T02:15:53;20.07;;;13.77;;
11048;SDS011;5577;42.706;23.160;2023-06-04T02:18:37;17.43;;;13.20;;
11048;SDS011;5577;42.706;23.160;2023-06-04T02:21:21;16.20;;;13.20;;
11048;SDS011;5577;42.706;23.160;2023-06-04T02:24:05;15.90;;;12.87;;
11048;SDS011;5577;42.706;23.160;2023-06-04T02:26:49;17.50;;;12.80;;
11048;SDS011;5577;42.706;23.160;2023-06-04T02:29:33;17.23;;;12.03;;
11048;SDS011;5577;42.706;23.160;2023-06-04T02:32:17;15.33;;;11.90;;
11048;SDS011;5577;42.706;23.160;2023-06-04T02:35:02;14.37;;;12.20;;
11048;SDS011;5577;42.706;23.160;2023-06-04T02:37:46;13.60;;;10.83;;
11048;SDS011;5577;42.706;23.160;2023-06-04T02:40:30;13.40;;;10.57;;
11048;SDS011;5577;42.706;23.160;2023-06-04T02:43:14;13.63;;;11.40;;
11048;SDS011;5577;42.706;23.160;2023-06-04T02:45:58;15.27;;;9.90;;
11048;SDS011;5577;42.706;23.160;2023-06-04T02:48:43;12.80;;;9.03;;
11048;SDS011;5577;42.706;23.160;2023-06-04T02:51:27;11.10;;;8.93;;
11048;SDS011;5577;42.706;23.160;2023-06-04T02:54:12;12.13;;;9.53;;
11048;SDS011;5577;42.706;23.160;2023-06-04T02:56:56;13.90;;;9.57;;
11048;SDS011;5577;42.706;23.160;2023-06-04T02:59:40;9.90;;;8.90;;
11048;SDS011;5577;42.706;23.160;2023-06-04T03:02:24;10.13;;;9.07;;
11048;SDS011;5577;42.706;23.160;2023-06-04T03:05:08;11.03;;;9.57;;
11048;SDS011;5577;42.706;23.160;2023-06-04T03:07:56;10.20;;;8.80;;
11048;SDS011;5577;42.706;23.160;2023-06-04T03:10:42;11.97;;;9.47;;
11048;SDS011;5577;42.706;23.160;2023-06-04T03:13:26;11.70;;;10.00;;
11048;SDS011;5577;42.706;23.160;2023-06-04T03:16:10;12.53;;;9.47;;
11048;SDS011;5577;42.706;23.160;2023-06-04T03:18:53;10.87;;;8.90;;
11048;SDS011;5577;42.706;23.160;2023-06-04T03:21:37;12.37;;;8.37;;
11048;SDS011;5577;42.706;23.160;2023-06-04T03:24:23;8.93;;;8.03;;
11048;SDS011;5577;42.706;23.160;2023-06-04T03:27:07;8.53;;;7.17;;
11048;SDS011;5577;42.706;23.160;2023-06-04T03:29:53;7.20;;;6.50;;
11048;SDS011;5577;42.706;23.160;2023-06-04T03:32:37;6.67;;;5.90;;
11048;SDS011;5577;42.706;23.160;2023-06-04T03:35:21;6.67;;;5.97;;
11048;SDS011;5577;42.706;23.160;2023-06-04T03:38:05;5.83;;;5.27;;
11048;SDS011;5577;42.706;23.160;2023-06-04T03:40:49;6.03;;;5.23;;
11048;SDS011;5577;42.706;23.160;2023-06-04T03:43:33;5.70;;;5.20;;
11048;SDS011;5577;42.706;23.160;2023-06-04T03:46:17;6.53;;;5.10;;
11048;SDS011;5577;42.706;23.160;2023-06-04T03:49:02;7.27;;;5.27;;
11048;SDS011;5577;42.706;23.160;2023-06-04T03:51:46;6.07;;;5.47;;
11048;SDS011;5577;42.706;23.160;2023-06-04T03:54:30;6.67;;;5.87;;
11048;SDS011;5577;42.706;23.160;2023-06-04T03:57:14;7.13;;;5.77;;
11048;SDS011;5577;42.706;23.160;2023-06-04T03:59:58;5.93;;;5.33;;
11048;SDS011;5577;42.706;23.160;2023-06-04T04:02:42;6.83;;;5.83;;
11048;SDS011;5577;42.706;23.160;2023-06-04T04:05:26;6.97;;;6.27;;
11048;SDS011;5577;42.706;23.160;2023-06-04T04:08:10;7.37;;;6.50;;
11048;SDS011;5577;42.706;23.160;2023-06-04T04:10:55;7.00;;;6.30;;
11048;SDS011;5577;42.706;23.160;2023-06-04T04:13:39;7.40;;;6.50;;
11048;SDS011;5577;42.706;23.160;2023-06-04T04:16:23;7.33;;;6.63;;
11048;SDS011;5577;42.706;23.160;2023-06-04T04:19:07;8.13;;;6.00;;
11048;SDS011;5577;42.706;23.160;2023-06-04T04:21:51;6.30;;;5.80;;
11048;SDS011;5577;42.706;23.160;2023-06-04T04:24:35;6.03;;;5.40;;
11048;SDS011;5577;42.706;23.160;2023-06-04T04:27:20;7.80;;;5.50;;
11048;SDS011;5577;42.706;23.160;2023-06-04T04:30:05;7.77;;;5.43;;
11048;SDS011;5577;42.706;23.160;2023-06-04T04:32:50;6.00;;;5.40;;
11048;SDS011;5577;42.706;23.160;2023-06-04T04:35:34;6.00;;;5.40;;
11048;SDS011;5577;42.706;23.160;2023-06-04T04:38:19;7.07;;;5.03;;
11048;SDS011;5577;42.706;23.160;2023-06-04T04:41:07;5.90;;;5.17;;
11048;SDS011;5577;42.706;23.160;2023-06-04T04:43:52;6.40;;;5.80;;
11048;SDS011;5577;42.706;23.160;2023-06-04T04:46:37;6.80;;;5.90;;
11048;SDS011;5577;42.706;23.160;2023-06-04T04:49:21;6.83;;;5.93;;
11048;SDS011;5577;42.706;23.160;2023-06-04T04:52:05;7.03;;;6.00;;
11048;SDS011;5577;42.706;23.160;2023-06-04T04:54:48;9.53;;;6.40;;
11048;SDS011;5577;42.706;23.160;2023-06-04T04:57:32;9.53;;;8.10;;
11048;SDS011;5577;42.706;23.160;2023-06-04T05:00:16;9.93;;;8.50;;
11048;SDS011;5577;42.706;23.160;2023-06-04T05:03:01;9.80;;;8.60;;
11048;SDS011;5577;42.706;23.160;2023-06-04T05:05:44;12.37;;;8.47;;
11048;SDS011;5577;42.706;23.160;2023-06-04T05:08:28;12.23;;;9.70;;
11048;SDS011;5577;42.706;23.160;2023-06-04T05:11:12;12.77;;;11.17;;
11048;SDS011;5577;42.706;23.160;2023-06-04T05:13:56;12.97;;;11.67;;
11048;SDS011;5577;42.706;23.160;2023-06-04T05:16:40;13.90;;;11.43;;
11048;SDS011;5577;42.706;23.160;2023-06-04T05:19:24;14.43;;;11.10;;
11048;SDS011;5577;42.706;23.160;2023-06-04T05:22:08;11.77;;;10.67;;
11048;SDS011;5577;42.706;23.160;2023-06-04T05:24:52;13.20;;;11.27;;
11048;SDS011;5577;42.706;23.160;2023-06-04T05:27:36;12.70;;;11.40;;
11048;SDS011;5577;42.706;23.160;2023-06-04T05:30:20;15.50;;;11.37;;
11048;SDS011;5577;42.706;23.160;2023-06-04T05:33:05;11.67;;;10.23;;
11048;SDS011;5577;42.706;23.160;2023-06-04T05:35:49;11.47;;;10.37;;
11048;SDS011;5577;42.706;23.160;2023-06-04T05:38:32;12.47;;;11.17;;
11048;SDS011;5577;42.706;23.160;2023-06-04T05:41:19;13.70;;;11.23;;
11048;SDS011;5577;42.706;23.160;2023-06-04T05:44:07;14.57;;;11.40;;
11048;SDS011;5577;42.706;23.160;2023-06-04T05:46:51;12.37;;;10.90;;
11048;SDS011;5577;42.706;23.160;2023-06-04T05:49:35;12.27;;;11.00;;
11048;SDS011;5577;42.706;23.160;2023-06-04T05:52:19;14.70;;;10.90;;
11048;SDS011;5577;42.706;23.160;2023-06-04T05:55:03;12.30;;;11.00;;
11048;SDS011;5577;42.706;23.160;2023-06-04T05:57:51;12.70;;;10.43;;
11048;SDS011;5577;42.706;23.160;2023-06-04T06:00:35;14.27;;;10.80;;
11048;SDS011;5577;42.706;23.160;2023-06-04T06:03:19;12.20;;;10.90;;
11048;SDS011;5577;42.706;23.160;2023-06-04T06:06:03;13.43;;;11.43;;
11048;SDS011;5577;42.706;23.160;2023-06-04T06:08:49;12.13;;;10.43;;
11048;SDS011;5577;42.706;23.160;2023-06-04T06:11:34;11.83;;;10.60;;
11048;SDS011;5577;42.706;23.160;2023-06-04T06:14:18;11.17;;;9.97;;
11048;SDS011;5577;42.706;23.160;2023-06-04T06:17:02;13.07;;;9.43;;
11048;SDS011;5577;42.706;23.160;2023-06-04T06:19:46;9.63;;;8.63;;
11048;SDS011;5577;42.706;23.160;2023-06-04T06:22:30;10.20;;;9.03;;
11048;SDS011;5577;42.706;23.160;2023-06-04T06:25:14;12.87;;;9.13;;
11048;SDS011;5577;42.706;23.160;2023-06-04T06:27:59;9.80;;;8.80;;
11048;SDS011;5577;42.706;23.160;2023-06-04T06:30:43;10.93;;;8.23;;
11048;SDS011;5577;42.706;23.160;2023-06-04T06:33:27;9.80;;;8.80;;
11048;SDS011;5577;42.706;23.160;2023-06-04T06:36:11;9.60;;;7.87;;
11048;SDS011;5577;42.706;23.160;2023-06-04T06:38:55;9.33;;;8.43;;
11048;SDS011;5577;42.706;23.160;2023-06-04T06:41:39;9.13;;;8.03;;
11048;SDS011;5577;42.706;23.160;2023-06-04T06:44:23;10.73;;;8.70;;
11048;SDS011;5577;42.706;23.160;2023-06-04T06:47:07;9.50;;;8.60;;
11048;SDS011;5577;42.706;23.160;2023-06-04T06:49:51;10.47;;;8.60;;
11048;SDS011;5577;42.706;23.160;2023-06-04T06:52:35;9.97;;;8.97;;
11048;SDS011;5577;42.706;23.160;2023-06-04T06:55:19;12.53;;;9.57;;
11048;SDS011;5577;42.706;23.160;2023-06-04T06:58:03;10.13;;;8.90;;
11048;SDS011;5577;42.706;23.160;2023-06-04T07:00:47;10.53;;;9.00;;
11048;SDS011;5577;42.706;23.160;2023-06-04T07:03:32;9.80;;;8.80;;
11048;SDS011;5577;42.706;23.160;2023-06-04T07:06:16;10.30;;;9.10;;
11048;SDS011;5577;42.706;23.160;2023-06-04T07:09:00;11.27;;;9.43;;
11048;SDS011;5577;42.706;23.160;2023-06-04T07:11:44;12.57;;;8.70;;
11048;SDS011;5577;42.706;23.160;2023-06-04T07:14:29;14.07;;;10.00;;
11048;SDS011;5577;42.706;23.160;2023-06-04T07:17:13;10.27;;;9.00;;
11048;SDS011;5577;42.706;23.160;2023-06-04T07:19:57;9.80;;;8.80;;
11048;SDS011;5577;42.706;23.160;2023-06-04T07:22:41;12.27;;;9.80;;
11048;SDS011;5577;42.706;23.160;2023-06-04T07:25:25;11.90;;;9.00;;
11048;SDS011;5577;42.706;23.160;2023-06-04T07:28:09;12.73;;;9.03;;
11048;SDS011;5577;42.706;23.160;2023-06-04T07:30:53;11.50;;;9.87;;
11048;SDS011;5577;42.706;23.160;2023-06-04T07:33:37;13.57;;;9.13;;
11048;SDS011;5577;42.706;23.160;2023-06-04T07:36:26;11.37;;;9.80;;
11048;SDS011;5577;42.706;23.160;2023-06-04T07:39:10;11.00;;;9.53;;
11048;SDS011;5577;42.706;23.160;2023-06-04T07:41:54;11.50;;;9.13;;
11048;SDS011;5577;42.706;23.160;2023-06-04T07:44:38;12.53;;;9.77;;
11048;SDS011;5577;42.706;23.160;2023-06-04T07:47:22;13.47;;;9.90;;
11048;SDS011;5577;42.706;23.160;2023-06-04T07:50:06;10.07;;;9.07;;
11048;SDS011;5577;42.706;23.160;2023-06-04T07:52:51;10.47;;;9.33;;
11048;SDS011;5577;42.706;23.160;2023-06-04T07:55:35;11.63;;;9.93;;
11048;SDS011;5577;42.706;23.160;2023-06-04T07:58:19;11.93;;;9.97;;
11048;SDS011;5577;42.706;23.160;2023-06-04T08:01:03;11.77;;;10.27;;
11048;SDS011;5577;42.706;23.160;2023-06-04T08:03:47;13.60;;;11.20;;
11048;SDS011;5577;42.706;23.160;2023-06-04T08:06:31;15.87;;;11.70;;
11048;SDS011;5577;42.706;23.160;2023-06-04T08:09:15;16.53;;;11.10;;
11048;SDS011;5577;42.706;23.160;2023-06-04T08:11:59;13.33;;;11.97;;
11048;SDS011;5577;42.706;23.160;2023-06-04T08:14:44;12.73;;;11.30;;
11048;SDS011;5577;42.706;23.160;2023-06-04T08:17:29;16.13;;;10.57;;
11048;SDS011;5577;42.706;23.160;2023-06-04T08:20:13;13.20;;;11.63;;
11048;SDS011;5577;42.706;23.160;2023-06-04T08:22:57;13.23;;;11.50;;
11048;SDS011;5577;42.706;23.160;2023-06-04T08:25:41;12.70;;;10.07;;
11048;SDS011;5577;42.706;23.160;2023-06-04T08:28:25;14.67;;;11.33;;
11048;SDS011;5577;42.706;23.160;2023-06-04T08:31:09;13.03;;;10.37;;
11048;SDS011;5577;42.706;23.160;2023-06-04T08:33:53;12.40;;;11.00;;
11048;SDS011;5577;42.706;23.160;2023-06-04T08:36:36;12.83;;;10.07;;
11048;SDS011;5577;42.706;23.160;2023-06-04T08:39:20;12.47;;;10.80;;
11048;SDS011;5577;42.706;23.160;2023-06-04T08:42:06;11.83;;;10.23;;
11048;SDS011;5577;42.706;23.160;2023-06-04T08:44:53;15.83;;;10.80;;
11048;SDS011;5577;42.706;23.160;2023-06-04T08:47:37;15.17;;;10.20;;
11048;SDS011;5577;42.706;23.160;2023-06-04T08:50:22;13.53;;;11.13;;
11048;SDS011;5577;42.706;23.160;2023-06-04T08:53:07;13.97;;;10.20;;
11048;SDS011;5577;42.706;23.160;2023-06-04T08:55:54;12.83;;;10.63;;
11048;SDS011;5577;42.706;23.160;2023-06-04T08:58:39;15.77;;;11.30;;
11048;SDS011;5577;42.706;23.160;2023-06-04T09:01:25;15.17;;;10.97;;
11048;SDS011;5577;42.706;23.160;2023-06-04T09:04:10;17.03;;;11.63;;
11048;SDS011;5577;42.706;23.160;2023-06-04T09:06:55;16.23;;;13.30;;
11048;SDS011;5577;42.706;23.160;2023-06-04T09:09:45;14.47;;;11.40;;
11048;SDS011;5577;42.706;23.160;2023-06-04T09:12:30;13.53;;;11.40;;
11048;SDS011;5577;42.706;23.160;2023-06-04T09:15:19;14.67;;;12.47;;
11048;SDS011;5577;42.706;23.160;2023-06-04T09:18:03;13.80;;;12.30;;
11048;SDS011;5577;42.706;23.160;2023-06-04T09:20:46;18.63;;;12.80;;
11048;SDS011;5577;42.706;23.160;2023-06-04T09:23:34;16.80;;;12.90;;
11048;SDS011;5577;42.706;23.160;2023-06-04T09:26:19;17.23;;;12.77;;
11048;SDS011;5577;42.706;23.160;2023-06-04T09:29:04;16.50;;;12.07;;
11048;SDS011;5577;42.706;23.160;2023-06-04T09:31:58;15.87;;;12.43;;
11048;SDS011;5577;42.706;23.160;2023-06-04T09:34:42;15.07;;;12.70;;
11048;SDS011;5577;42.706;23.160;2023-06-04T09:37:28;15.43;;;12.50;;
11048;SDS011;5577;42.706;23.160;2023-06-04T09:40:12;15.30;;;12.10;;
11048;SDS011;5577;42.706;23.160;2023-06-04T09:42:57;17.37;;;12.20;;
11048;SDS011;5577;42.706;23.160;2023-06-04T09:45:41;16.07;;;12.00;;
11048;SDS011;5577;42.706;23.160;2023-06-04T09:48:25;16.77;;;11.57;;
11048;SDS011;5577;42.706;23.160;2023-06-04T09:51:10;16.93;;;12.57;;
11048;SDS011;5577;42.706;23.160;2023-06-04T09:53:55;16.03;;;13.33;;
11048;SDS011;5577;42.706;23.160;2023-06-04T09:56:41;15.57;;;12.53;;
11048;SDS011;5577;42.706;23.160;2023-06-04T09:59:26;17.57;;;11.93;;
11048;SDS011;5577;42.706;23.160;2023-06-04T10:02:11;15.70;;;11.83;;
11048;SDS011;5577;42.706;23.160;2023-06-04T10:04:56;15.57;;;12.27;;
11048;SDS011;5577;42.706;23.160;2023-06-04T10:07:43;19.23;;;13.20;;
11048;SDS011;5577;42.706;23.160;2023-06-04T10:10:28;17.47;;;12.87;;
11048;SDS011;5577;42.706;23.160;2023-06-04T10:13:14;14.93;;;12.37;;
11048;SDS011;5577;42.706;23.160;2023-06-04T10:16:01;15.47;;;12.37;;
11048;SDS011;5577;42.706;23.160;2023-06-04T10:18:47;15.47;;;12.90;;
11048;SDS011;5577;42.706;23.160;2023-06-04T10:21:32;15.53;;;12.33;;
11048;SDS011;5577;42.706;23.160;2023-06-04T10:24:19;15.00;;;11.97;;
11048;SDS011;5577;42.706;23.160;2023-06-04T10:27:04;13.43;;;11.67;;
11048;SDS011;5577;42.706;23.160;2023-06-04T10:29:54;15.57;;;11.77;;
11048;SDS011;5577;42.706;23.160;2023-06-04T10:32:38;18.70;;;12.23;;
11048;SDS011;5577;42.706;23.160;2023-06-04T10:35:29;13.70;;;12.03;;
11048;SDS011;5577;42.706;23.160;2023-06-04T10:38:14;13.33;;;11.93;;
11048;SDS011;5577;42.706;23.160;2023-06-04T10:41:00;13.97;;;11.97;;
11048;SDS011;5577;42.706;23.160;2023-06-04T10:44:00;14.50;;;12.40;;
11048;SDS011;5577;42.706;23.160;2023-06-04T10:46:45;13.27;;;11.63;;
11048;SDS011;5577;42.706;23.160;2023-06-04T10:49:30;15.63;;;12.70;;
11048;SDS011;5577;42.706;23.160;2023-06-04T10:52:14;13.23;;;11.80;;
11048;SDS011;5577;42.706;23.160;2023-06-04T10:55:04;15.73;;;12.00;;
11048;SDS011;5577;42.706;23.160;2023-06-04T10:57:57;15.53;;;11.63;;
11048;SDS011;5577;42.706;23.160;2023-06-04T11:00:45;15.50;;;13.30;;
11048;SDS011;5577;42.706;23.160;2023-06-04T11:03:38;17.83;;;13.80;;
11048;SDS011;5577;42.706;23.160;2023-06-04T11:06:22;15.43;;;12.37;;
11048;SDS011;5577;42.706;23.160;2023-06-04T11:09:12;12.20;;;10.77;;
11048;SDS011;5577;42.706;23.160;2023-06-04T11:12:04;12.43;;;11.07;;
11048;SDS011;5577;42.706;23.160;2023-06-04T11:14:55;13.87;;;11.17;;
11048;SDS011;5577;42.706;23.160;2023-06-04T11:17:53;12.43;;;10.10;;
11048;SDS011;5577;42.706;23.160;2023-06-04T11:20:39;14.60;;;10.93;;
11048;SDS011;5577;42.706;23.160;2023-06-04T11:23:23;12.53;;;9.80;;
11048;SDS011;5577;42.706;23.160;2023-06-04T11:26:07;12.07;;;9.90;;
11048;SDS011;5577;42.706;23.160;2023-06-04T11:28:51;10.63;;;9.53;;
11048;SDS011;5577;42.706;23.160;2023-06-04T11:31:42;13.37;;;9.90;;
11048;SDS011;5577;42.706;23.160;2023-06-04T11:34:30;13.50;;;10.43;;
11048;SDS011;5577;42.706;23.160;2023-06-04T11:37:15;12.97;;;9.40;;
11048;SDS011;5577;42.706;23.160;2023-06-04T11:39:59;11.93;;;10.00;;
11048;SDS011;5577;42.706;23.160;2023-06-04T11:42:49;10.80;;;9.70;;
11048;SDS011;5577;42.706;23.160;2023-06-04T11:45:34;12.00;;;9.63;;
11048;SDS011;5577;42.706;23.160;2023-06-04T11:48:20;11.87;;;9.10;;
11048;SDS011;5577;42.706;23.160;2023-06-04T11:51:06;11.97;;;9.57;;
11048;SDS011;5577;42.706;23.160;2023-06-04T11:53:52;10.33;;;9.30;;
11048;SDS011;5577;42.706;23.160;2023-06-04T11:56:36;11.27;;;9.27;;
11048;SDS011;5577;42.706;23.160;2023-06-04T11:59:20;10.13;;;9.13;;
11048;SDS011;5577;42.706;23.160;2023-06-04T12:02:05;11.37;;;10.17;;
11048;SDS011;5577;42.706;23.160;2023-06-04T12:04:51;10.93;;;9.83;;
11048;SDS011;5577;42.706;23.160;2023-06-04T12:07:34;11.30;;;10.20;;
11048;SDS011;5577;42.706;23.160;2023-06-04T12:10:19;11.63;;;9.33;;
11048;SDS011;5577;42.706;23.160;2023-06-04T12:13:04;12.03;;;9.93;;
11048;SDS011;5577;42.706;23.160;2023-06-04T12:15:54;11.93;;;10.73;;
11048;SDS011;5577;42.706;23.160;2023-06-04T12:18:38;11.53;;;10.30;;
11048;SDS011;5577;42.706;23.160;2023-06-04T12:21:23;11.73;;;10.40;;
11048;SDS011;5577;42.706;23.160;2023-06-04T12:24:11;12.03;;;10.63;;
11048;SDS011;5577;42.706;23.160;2023-06-04T12:27:03;12.67;;;10.97;;
11048;SDS011;5577;42.706;23.160;2023-06-04T12:29:58;10.50;;;9.47;;
11048;SDS011;5577;42.706;23.160;2023-06-04T12:32:43;11.90;;;10.47;;
11048;SDS011;5577;42.706;23.160;2023-06-04T12:35:28;11.50;;;10.40;;
11048;SDS011;5577;42.706;23.160;2023-06-04T12:38:12;11.17;;;10.07;;
11048;SDS011;5577;42.706;23.160;2023-06-04T12:40:56;10.80;;;9.80;;
11048;SDS011;5577;42.706;23.160;2023-06-04T12:43:40;10.70;;;9.60;;
11048;SDS011;5577;42.706;23.160;2023-06-04T12:46:24;11.40;;;9.70;;
11048;SDS011;5577;42.706;23.160;2023-06-04T12:49:08;12.47;;;9.73;;
11048;SDS011;5577;42.706;23.160;2023-06-04T12:51:52;11.37;;;10.27;;
11048;SDS011;5577;42.706;23.160;2023-06-04T12:54:36;11.17;;;10.07;;
11048;SDS011;5577;42.706;23.160;2023-06-04T12:57:20;12.27;;;11.10;;
11048;SDS011;5577;42.706;23.160;2023-06-04T13:00:04;12.83;;;11.63;;
11048;SDS011;5577;42.706;23.160;2023-06-04T13:02:49;11.40;;;10.27;;
11048;SDS011;5577;42.706;23.160;2023-06-04T13:05:33;10.67;;;9.77;;
11048;SDS011;5577;42.706;23.160;2023-06-04T13:08:17;12.90;;;10.00;;
11048;SDS011;5577;42.706;23.160;2023-06-04T13:11:01;11.77;;;10.67;;
11048;SDS011;5577;42.706;23.160;2023-06-04T13:13:46;11.60;;;10.53;;
11048;SDS011;5577;42.706;23.160;2023-06-04T13:16:30;11.97;;;10.60;;
11048;SDS011;5577;42.706;23.160;2023-06-04T13:19:14;11.50;;;10.40;;
11048;SDS011;5577;42.706;23.160;2023-06-04T13:21:58;11.43;;;10.20;;
11048;SDS011;5577;42.706;23.160;2023-06-04T13:24:42;11.70;;;10.60;;
11048;SDS011;5577;42.706;23.160;2023-06-04T13:27:26;15.07;;;11.27;;
11048;SDS011;5577;42.706;23.160;2023-06-04T13:30:10;13.20;;;11.20;;
11048;SDS011;5577;42.706;23.160;2023-06-04T13:32:55;13.10;;;11.73;;
11048;SDS011;5577;42.706;23.160;2023-06-04T13:35:41;12.20;;;11.00;;
11048;SDS011;5577;42.706;23.160;2023-06-04T13:38:26;12.50;;;11.40;;
11048;SDS011;5577;42.706;23.160;2023-06-04T13:41:10;13.40;;;11.30;;
11048;SDS011;5577;42.706;23.160;2023-06-04T13:43:54;11.77;;;10.70;;
11048;SDS011;5577;42.706;23.160;2023-06-04T13:46:40;12.23;;;11.03;;
11048;SDS011;5577;42.706;23.160;2023-06-04T13:49:24;11.67;;;10.57;;
11048;SDS011;5577;42.706;23.160;2023-06-04T13:52:08;11.03;;;10.03;;
11048;SDS011;5577;42.706;23.160;2023-06-04T13:54:52;10.70;;;9.60;;
11048;SDS011;5577;42.706;23.160;2023-06-04T13:57:36;12.90;;;10.40;;
11048;SDS011;5577;42.706;23.160;2023-06-04T14:00:20;10.33;;;9.03;;
11048;SDS011;5577;42.706;23.160;2023-06-04T14:03:05;10.17;;;9.30;;
11048;SDS011;5577;42.706;23.160;2023-06-04T14:05:49;10.07;;;9.10;;
11048;SDS011;5577;42.706;23.160;2023-06-04T14:08:33;10.17;;;9.27;;
11048;SDS011;5577;42.706;23.160;2023-06-04T14:11:17;9.80;;;8.77;;
11048;SDS011;5577;42.706;23.160;2023-06-04T14:14:01;12.23;;;10.93;;
11048;SDS011;5577;42.706;23.160;2023-06-04T14:16:45;11.60;;;10.50;;
11048;SDS011;5577;42.706;23.160;2023-06-04T14:19:29;11.10;;;9.67;;
11048;SDS011;5577;42.706;23.160;2023-06-04T14:22:13;12.30;;;9.40;;
11048;SDS011;5577;42.706;23.160;2023-06-04T14:24:57;10.50;;;9.53;;
11048;SDS011;5577;42.706;23.160;2023-06-04T14:27:43;12.50;;;10.37;;
11048;SDS011;5577;42.706;23.160;2023-06-04T14:30:27;11.67;;;10.47;;
11048;SDS011;5577;42.706;23.160;2023-06-04T14:33:11;15.13;;;11.30;;
11048;SDS011;5577;42.706;23.160;2023-06-04T14:35:55;14.10;;;12.70;;
11048;SDS011;5577;42.706;23.160;2023-06-04T14:38:39;13.43;;;12.13;;
11048;SDS011;5577;42.706;23.160;2023-06-04T14:41:23;15.67;;;14.07;;
11048;SDS011;5577;42.706;23.160;2023-06-04T14:44:07;18.30;;;16.20;;
11048;SDS011;5577;42.706;23.160;2023-06-04T14:46:52;19.67;;;17.67;;
11048;SDS011;5577;42.706;23.160;2023-06-04T14:49:35;21.87;;;19.60;;
11048;SDS011;5577;42.706;23.160;2023-06-04T14:52:21;21.13;;;19.03;;
11048;SDS011;5577;42.706;23.160;2023-06-04T14:55:04;21.63;;;19.33;;
11048;SDS011;5577;42.706;23.160;2023-06-04T14:57:49;18.53;;;16.83;;
11048;SDS011;5577;42.706;23.160;2023-06-04T15:00:34;20.63;;;18.47;;
11048;SDS011;5577;42.706;23.160;2023-06-04T15:03:19;19.47;;;17.47;;
11048;SDS011;5577;42.706;23.160;2023-06-04T15:06:03;19.33;;;17.33;;
11048;SDS011;5577;42.706;23.160;2023-06-04T15:08:47;22.97;;;18.87;;
11048;SDS011;5577;42.706;23.160;2023-06-04T15:11:30;21.57;;;19.13;;
11048;SDS011;5577;42.706;23.160;2023-06-04T15:14:14;21.50;;;19.20;;
11048;SDS011;5577;42.706;23.160;2023-06-04T15:16:58;19.07;;;17.20;;
11048;SDS011;5577;42.706;23.160;2023-06-04T15:19:42;18.80;;;16.90;;
11048;SDS011;5577;42.706;23.160;2023-06-04T15:22:26;20.17;;;18.07;;
11048;SDS011;5577;42.706;23.160;2023-06-04T15:25:10;20.10;;;18.00;;
11048;SDS011;5577;42.706;23.160;2023-06-04T15:27:54;21.50;;;19.17;;
11048;SDS011;5577;42.706;23.160;2023-06-04T15:30:38;24.17;;;19.67;;
11048;SDS011;5577;42.706;23.160;2023-06-04T15:33:22;20.37;;;18.23;;
11048;SDS011;5577;42.706;23.160;2023-06-04T15:36:06;21.27;;;18.97;;
11048;SDS011;5577;42.706;23.160;2023-06-04T15:38:50;23.83;;;18.63;;
11048;SDS011;5577;42.706;23.160;2023-06-04T15:41:34;22.63;;;19.37;;
11048;SDS011;5577;42.706;23.160;2023-06-04T15:44:18;21.53;;;19.20;;
11048;SDS011;5577;42.706;23.160;2023-06-04T15:47:02;23.57;;;18.77;;
11048;SDS011;5577;42.706;23.160;2023-06-04T15:49:46;22.03;;;18.80;;
11048;SDS011;5577;42.706;23.160;2023-06-04T15:52:30;21.73;;;18.97;;
11048;SDS011;5577;42.706;23.160;2023-06-04T15:55:14;24.83;;;20.27;;
11048;SDS011;5577;42.706;23.160;2023-06-04T15:57:58;23.43;;;20.43;;
11048;SDS011;5577;42.706;23.160;2023-06-04T16:00:42;23.17;;;20.73;;
11048;SDS011;5577;42.706;23.160;2023-06-04T16:03:26;23.77;;;21.20;;
11048;SDS011;5577;42.706;23.160;2023-06-04T16:06:10;25.53;;;21.73;;
11048;SDS011;5577;42.706;23.160;2023-06-04T16:08:54;24.83;;;21.67;;
11048;SDS011;5577;42.706;23.160;2023-06-04T16:11:38;24.87;;;22.23;;
11048;SDS011;5577;42.706;23.160;2023-06-04T16:14:22;25.73;;;22.97;;